Time;durP1;ratioP1;P1;durP2;ratioP2;P2;SDS_P1;SDS_P2;PMS_P1;PMS_P2;Temp;Humidity;BMP_temperature;BMP_pressure;BME280_temperature;BME280_humidity;BME280_pressure;Samples;Min_cycle;Max_cycle;Signal;HPM_P1;HPM_P2
2022/08/20 00:00:14;;;;;;;7.30;6.47;;;19.30;1.00;;;;;;5044446;28;20432;-53
2022/08/20 00:02:45;;;;;;;7.43;6.67;;;19.40;1.00;;;;;;5052174;28;20190;-53
2022/08/20 00:05:12;;;;;;;7.73;6.83;;;19.30;1.00;;;;;;5049633;28;20473;-53
2022/08/20 00:07:38;;;;;;;8.83;6.97;;;19.30;1.00;;;;;;5051611;28;20424;-53
2022/08/20 00:10:05;;;;;;;6.97;6.37;;;19.30;1.00;;;;;;5047005;28;20803;-52
2022/08/20 00:12:32;;;;;;;7.13;6.33;;;19.20;1.00;;;;;;5051219;28;20252;-53
2022/08/20 00:14:58;;;;;;;7.47;6.53;;;19.30;1.00;;;;;;5052470;28;20496;-53
2022/08/20 00:17:24;;;;;;;8.50;6.60;;;19.30;1.00;;;;;;5051383;28;20901;-53
2022/08/20 00:19:50;;;;;;;6.90;6.20;;;19.30;1.00;;;;;;5052026;28;20178;-52
2022/08/20 00:22:15;;;;;;;9.50;6.90;;;19.30;1.00;;;;;;5050273;28;20233;-52
2022/08/20 00:24:42;;;;;;;7.43;6.73;;;19.40;1.00;;;;;;5051924;28;20205;-53
2022/08/20 00:27:07;;;;;;;7.73;7.03;;;19.40;1.00;;;;;;5052025;28;20167;-53
2022/08/20 00:29:33;;;;;;;8.30;7.40;;;19.30;1.00;;;;;;5052039;28;20424;-53
2022/08/20 00:31:59;;;;;;;7.07;6.37;;;19.40;1.00;;;;;;5050570;28;20643;-53
2022/08/20 00:34:25;;;;;;;6.80;6.10;;;19.40;1.00;;;;;;5050219;28;20181;-53
2022/08/20 00:36:50;;;;;;;8.30;6.50;;;19.40;1.00;;;;;;5050270;28;20280;-53
2022/08/20 00:39:16;;;;;;;9.47;6.57;;;19.40;1.00;;;;;;5051862;28;20483;-52
2022/08/20 00:41:42;;;;;;;7.63;5.83;;;19.40;1.00;;;;;;5052184;28;20238;-53
2022/08/20 00:44:07;;;;;;;12.87;6.93;;;19.40;1.00;;;;;;5032113;28;20237;-53
2022/08/20 00:46:33;;;;;;;6.07;5.50;;;19.40;1.00;;;;;;5032238;28;20597;-53
2022/08/20 00:49:02;;;;;;;8.63;6.30;;;19.40;1.00;;;;;;5031830;28;20221;-53
2022/08/20 00:51:41;;;;;;;5.50;5.00;;;19.40;1.00;;;;;;5031627;28;20504;-52
2022/08/20 00:54:19;;;;;;;9.77;5.77;;;19.40;1.00;;;;;;5031715;28;20832;-53
2022/08/20 00:56:51;;;;;;;6.53;5.83;;;19.50;1.00;;;;;;5031780;28;20409;-53
2022/08/20 00:59:24;;;;;;;7.30;5.50;;;19.50;1.00;;;;;;5036719;28;20435;-53
2022/08/20 01:01:50;;;;;;;8.37;6.33;;;19.60;1.00;;;;;;5051270;28;20462;-51
2022/08/20 01:04:16;;;;;;;8.07;5.70;;;19.60;1.00;;;;;;5051451;28;20448;-55
2022/08/20 01:06:43;;;;;;;7.33;5.40;;;19.50;1.00;;;;;;5049940;28;20463;-53
2022/08/20 01:09:10;;;;;;;9.77;5.70;;;19.50;1.00;;;;;;5051190;28;20453;-53
2022/08/20 01:11:36;;;;;;;6.60;6.00;;;19.50;1.00;;;;;;5048200;28;20458;-53
2022/08/20 01:16:54;;;;;;;6.70;6.10;;;19.40;1.00;;;;;;5051031;28;20396;-53
2022/08/20 01:19:27;;;;;;;6.10;5.50;;;19.40;1.00;;;;;;5051087;28;20432;-53
2022/08/20 01:21:53;;;;;;;11.27;6.83;;;19.40;1.00;;;;;;5048965;28;20480;-52
2022/08/20 01:24:34;;;;;;;8.10;6.33;;;19.40;1.00;;;;;;5049640;28;20538;-53
2022/08/20 01:27:04;;;;;;;6.83;5.17;;;19.40;1.00;;;;;;5035965;28;20211;-53
2022/08/20 01:29:35;;;;;;;5.57;5.10;;;19.60;1.00;;;;;;5030873;28;20402;-50
2022/08/20 01:32:02;;;;;;;6.63;5.43;;;19.60;1.00;;;;;;5030919;28;20888;-53
2022/08/20 01:34:28;;;;;;;8.40;6.23;;;19.60;1.00;;;;;;5030981;28;20516;-53
2022/08/20 01:36:56;;;;;;;8.13;6.23;;;19.60;1.00;;;;;;5030857;28;20422;-53
2022/08/20 01:39:28;;;;;;;7.57;6.17;;;19.50;1.00;;;;;;5031030;28;20413;-53
2022/08/20 01:42:10;;;;;;;6.30;5.60;;;19.50;1.00;;;;;;5030836;28;20413;-52
2022/08/20 01:44:38;;;;;;;6.67;5.30;;;19.50;1.00;;;;;;5033058;28;20510;-52
2022/08/20 01:47:13;;;;;;;7.30;5.80;;;19.40;1.00;;;;;;5030872;28;20446;-53
2022/08/20 01:49:42;;;;;;;6.30;5.70;;;19.30;1.00;;;;;;5030747;28;20499;-53
2022/08/20 01:52:13;;;;;;;5.60;5.10;;;19.30;1.00;;;;;;5030664;28;20795;-53
2022/08/20 01:54:40;;;;;;;5.10;4.60;;;19.40;1.00;;;;;;5047601;28;20796;-52
2022/08/20 01:57:13;;;;;;;5.60;5.10;;;19.40;1.00;;;;;;5050569;28;20436;-53
2022/08/20 01:59:39;;;;;;;13.63;5.47;;;19.40;1.00;;;;;;5041238;28;20500;-52
2022/08/20 02:02:05;;;;;;;5.80;5.30;;;19.40;1.00;;;;;;5031061;28;20422;-53
2022/08/20 02:04:32;;;;;;;5.93;5.43;;;19.40;1.00;;;;;;5030808;28;20199;-53
2022/08/20 02:07:00;;;;;;;6.43;5.70;;;19.50;1.00;;;;;;5044465;28;20471;-53
2022/08/20 02:09:29;;;;;;;9.40;6.67;;;19.40;1.00;;;;;;5036598;28;20445;-52
2022/08/20 02:11:56;;;;;;;6.13;5.47;;;19.40;1.00;;;;;;5030675;28;20429;-53
2022/08/20 02:14:22;;;;;;;12.03;5.70;;;19.30;1.00;;;;;;5030300;28;20513;-52
2022/08/20 02:16:49;;;;;;;5.90;5.40;;;19.30;1.00;;;;;;5037459;28;20878;-52
2022/08/20 02:19:29;;;;;;;5.60;4.97;;;19.20;1.00;;;;;;5034807;28;20402;-53
2022/08/20 02:21:58;;;;;;;9.00;6.47;;;19.20;1.00;;;;;;5037884;28;20988;-52
2022/08/20 02:24:24;;;;;;;8.43;6.67;;;19.20;1.00;;;;;;5040631;28;20476;-51
2022/08/20 02:26:51;;;;;;;13.40;9.30;;;19.20;1.00;;;;;;5034535;28;20433;-53
2022/08/20 02:29:17;;;;;;;13.57;10.57;;;19.20;1.00;;;;;;5034264;28;20175;-53
2022/08/20 02:31:44;;;;;;;13.47;10.43;;;19.20;1.00;;;;;;5034328;28;20413;-53
2022/08/20 02:34:12;;;;;;;18.77;11.97;;;19.20;1.00;;;;;;5051951;28;20181;-53
2022/08/20 02:36:40;;;;;;;23.80;17.47;;;19.20;1.00;;;;;;5034681;28;20460;-52
2022/08/20 02:39:09;;;;;;;19.50;15.47;;;19.10;1.00;;;;;;5046271;28;20486;-52
2022/08/20 02:41:36;;;;;;;22.43;16.27;;;19.10;1.00;;;;;;5050727;28;20452;-54
2022/08/20 02:44:04;;;;;;;18.93;13.33;;;19.00;1.00;;;;;;5052902;28;20482;-53
2022/08/20 02:46:30;;;;;;;16.70;11.90;;;19.00;1.00;;;;;;5053830;28;20482;-53
2022/08/20 02:48:56;;;;;;;15.90;11.93;;;19.10;1.00;;;;;;5053887;28;20421;-53
2022/08/20 02:51:22;;;;;;;17.83;12.93;;;19.10;1.00;;;;;;5050419;28;20542;-53
2022/08/20 02:53:48;;;;;;;24.77;16.37;;;19.10;1.00;;;;;;5033922;28;20421;-53
2022/08/20 02:56:14;;;;;;;23.03;16.13;;;19.10;1.00;;;;;;5049404;28;20703;-53
2022/08/20 02:58:40;;;;;;;22.20;14.93;;;19.10;1.00;;;;;;5048111;28;20194;-54
2022/08/20 03:01:11;;;;;;;23.20;16.73;;;19.00;1.00;;;;;;5047390;28;20444;-53
2022/08/20 03:03:37;;;;;;;25.77;16.73;;;19.00;13.80;;;;;;5042415;28;20432;-53
2022/08/20 03:06:05;;;;;;;29.10;18.70;;;18.90;72.60;;;;;;5028611;28;20532;-53
2022/08/20 03:08:30;;;;;;;25.50;15.17;;;18.90;99.90;;;;;;5030348;28;21225;-53
2022/08/20 03:10:56;;;;;;;26.60;16.17;;;18.80;99.90;;;;;;5029710;28;20452;-54
2022/08/20 03:13:23;;;;;;;28.50;16.93;;;18.80;99.90;;;;;;5029799;28;20203;-53
2022/08/20 03:15:55;;;;;;;26.10;16.90;;;18.70;99.90;;;;;;5033102;28;20190;-53
2022/08/20 03:18:22;;;;;;;21.27;15.07;;;18.70;99.90;;;;;;5028626;28;20456;-54
2022/08/20 03:20:48;;;;;;;24.03;16.23;;;18.70;99.90;;;;;;5045579;28;20448;-53
2022/08/20 03:23:15;;;;;;;24.13;14.00;;;18.70;99.90;;;;;;5038206;28;20489;-54
2022/08/20 03:25:42;;;;;;;19.17;15.07;;;18.60;99.90;;;;;;5030035;28;22339;-54
2022/08/20 03:28:08;;;;;;;18.60;13.73;;;18.60;1.00;;;;;;5028983;28;20869;-53
2022/08/20 03:30:33;;;;;;;22.03;15.00;;;18.70;1.00;;;;;;5031868;28;20449;-54
2022/08/20 03:32:59;;;;;;;22.07;15.07;;;18.70;1.00;;;;;;5032976;28;20188;-54
2022/08/20 03:35:27;;;;;;;23.47;16.13;;;18.70;1.00;;;;;;5027926;28;20862;-54
2022/08/20 03:37:53;;;;;;;24.40;16.10;;;18.70;1.00;;;;;;5030095;28;20244;-54
2022/08/20 03:40:23;;;;;;;26.10;16.23;;;18.70;1.00;;;;;;5029886;28;20538;-54
2022/08/20 03:42:51;;;;;;;24.27;16.67;;;18.70;1.00;;;;;;5029943;28;20444;-55
2022/08/20 03:45:18;;;;;;;24.30;17.27;;;18.70;1.00;;;;;;5029596;28;20956;-55
2022/08/20 03:47:44;;;;;;;26.10;17.40;;;18.70;68.90;;;;;;5030238;28;20452;-55
2022/08/20 03:50:10;;;;;;;28.03;17.73;;;18.70;99.90;;;;;;5029513;28;20445;-54
2022/08/20 03:52:36;;;;;;;26.33;17.00;;;18.70;99.90;;;;;;5050188;28;20191;-55
2022/08/20 03:55:03;;;;;;;23.93;15.13;;;18.70;99.90;;;;;;5051140;28;20579;-55
2022/08/20 03:57:29;;;;;;;27.13;16.70;;;18.70;99.90;;;;;;5051326;28;20190;-55
2022/08/20 03:59:55;;;;;;;22.87;15.80;;;18.70;1.00;;;;;;5052438;28;20429;-56
2022/08/20 04:02:21;;;;;;;22.33;14.90;;;18.70;1.00;;;;;;5052324;28;20186;-58
2022/08/20 04:04:46;;;;;;;23.27;15.70;;;18.70;1.00;;;;;;5051328;28;20687;-55
2022/08/20 04:07:24;;;;;;;24.27;17.20;;;18.80;1.00;;;;;;5050325;28;20707;-56
2022/08/20 04:09:51;;;;;;;21.03;14.07;;;18.70;1.00;;;;;;5047756;28;20274;-56
2022/08/20 04:12:17;;;;;;;26.87;17.77;;;18.80;1.00;;;;;;5051205;28;20481;-56
2022/08/20 04:14:43;;;;;;;30.23;17.87;;;18.80;99.90;;;;;;5047112;28;20452;-56
2022/08/20 04:17:11;;;;;;;35.70;19.33;;;18.80;99.90;;;;;;5042519;28;20443;-56
2022/08/20 04:19:38;;;;;;;27.70;17.73;;;18.90;99.90;;;;;;5050992;28;20236;-56
2022/08/20 04:22:05;;;;;;;32.00;18.93;;;18.90;99.90;;;;;;5034493;28;20963;-57
2022/08/20 04:24:31;;;;;;;25.27;16.30;;;18.90;1.00;;;;;;5032995;28;20469;-57
2022/08/20 04:26:57;;;;;;;23.60;15.53;;;18.90;1.00;;;;;;5051031;28;20470;-57
2022/08/20 04:29:24;;;;;;;26.40;16.50;;;19.00;1.00;;;;;;5042973;28;20453;-56
2022/08/20 04:31:51;;;;;;;22.77;15.93;;;19.00;1.00;;;;;;5041970;28;20444;-56
2022/08/20 04:34:18;;;;;;;22.53;15.43;;;18.90;1.00;;;;;;5050880;28;20476;-56
2022/08/20 04:36:46;;;;;;;19.03;14.20;;;19.00;1.00;;;;;;5051762;28;20435;-56
2022/08/20 04:39:15;;;;;;;26.13;14.53;;;19.00;99.90;;;;;;5051795;28;20921;-56
2022/08/20 04:41:41;;;;;;;19.13;14.87;;;19.00;22.50;;;;;;5033985;28;20449;-57
2022/08/20 04:44:08;;;;;;;21.17;14.60;;;19.00;1.00;;;;;;5050739;28;20483;-56
2022/08/20 04:46:33;;;;;;;25.00;15.50;;;18.90;1.00;;;;;;5050970;28;20500;-52
2022/08/20 04:49:00;;;;;;;17.33;12.93;;;18.90;1.00;;;;;;5035237;28;20535;-56
2022/08/20 04:51:26;;;;;;;21.00;14.47;;;18.90;99.90;;;;;;5039837;28;20170;-56
2022/08/20 04:53:53;;;;;;;21.30;15.00;;;18.90;99.90;;;;;;5049832;28;20531;-56
2022/08/20 04:56:22;;;;;;;21.40;14.67;;;18.90;99.90;;;;;;5050463;28;20190;-56
2022/08/20 04:58:49;;;;;;;24.03;15.60;;;18.80;99.90;;;;;;5032209;28;20473;-56
2022/08/20 05:01:15;;;;;;;24.53;15.77;;;18.90;99.90;;;;;;5044059;28;20445;-55
2022/08/20 05:03:41;;;;;;;22.83;16.00;;;18.90;99.90;;;;;;5040595;28;20439;-55
2022/08/20 05:06:09;;;;;;;22.60;15.60;;;18.90;99.90;;;;;;5050411;28;20182;-55
2022/08/20 05:08:37;;;;;;;21.80;14.60;;;18.90;4.30;;;;;;5050398;28;20502;-56
2022/08/20 05:11:04;;;;;;;25.83;15.90;;;18.90;1.00;;;;;;5050115;28;20439;-55
2022/08/20 05:13:29;;;;;;;20.47;13.90;;;19.00;1.00;;;;;;5050510;28;20441;-56
2022/08/20 05:15:58;;;;;;;23.03;14.77;;;19.00;1.00;;;;;;5049466;28;20459;-55
2022/08/20 05:18:25;;;;;;;26.17;14.07;;;19.10;1.00;;;;;;5049827;28;20274;-55
2022/08/20 05:20:51;;;;;;;20.20;15.00;;;19.10;1.00;;;;;;5047117;28;20501;-55
2022/08/20 05:23:19;;;;;;;22.40;15.00;;;19.10;1.00;;;;;;5049744;28;20488;-55
2022/08/20 05:25:50;;;;;;;20.27;14.23;;;19.10;1.00;;;;;;5050902;28;20481;-55
2022/08/20 05:28:22;;;;;;;19.43;14.17;;;19.20;1.00;;;;;;5035810;28;20437;-55
2022/08/20 05:30:49;;;;;;;22.50;15.60;;;19.20;1.00;;;;;;5050116;28;20934;-55
2022/08/20 05:33:18;;;;;;;24.23;14.60;;;19.20;1.00;;;;;;5049605;28;20547;-55
2022/08/20 05:35:46;;;;;;;21.83;14.60;;;19.40;1.00;;;;;;5031253;28;20433;-55
2022/08/20 05:38:15;;;;;;;18.43;14.33;;;19.40;1.00;;;;;;5031220;28;20544;-55
2022/08/20 05:40:41;;;;;;;21.77;14.37;;;19.40;1.00;;;;;;5050960;28;20421;-55
2022/08/20 05:43:07;;;;;;;21.93;14.10;;;19.50;1.00;;;;;;5049849;28;20474;-55
2022/08/20 05:45:36;;;;;;;23.87;13.23;;;19.50;1.00;;;;;;5050800;28;20798;-56
2022/08/20 05:48:11;;;;;;;17.03;13.20;;;19.60;99.90;;;;;;5047895;28;20441;-55
2022/08/20 05:50:37;;;;;;;17.83;12.90;;;19.60;99.90;;;;;;5049783;28;20444;-55
2022/08/20 05:53:03;;;;;;;26.40;15.50;;;19.70;99.90;;;;;;5051956;28;20437;-54
2022/08/20 05:55:29;;;;;;;16.43;13.03;;;19.70;99.90;;;;;;5054430;28;20470;-55
2022/08/20 05:58:02;;;;;;;18.77;13.50;;;19.70;99.90;;;;;;5037359;28;20190;-55
2022/08/20 06:00:29;;;;;;;15.90;13.47;;;19.70;1.00;;;;;;5053635;28;20464;-56
2022/08/20 06:05:40;;;;;;;21.00;13.83;;;19.70;1.00;;;;;;5045043;28;20475;-55
2022/08/20 06:08:07;;;;;;;17.43;13.90;;;19.70;1.00;;;;;;5040814;28;20494;-55
2022/08/20 06:10:34;;;;;;;15.87;13.00;;;19.70;1.00;;;;;;5053779;28;20506;-55
2022/08/20 06:13:01;;;;;;;15.90;12.20;;;19.80;1.00;;;;;;5053372;28;20783;-55
2022/08/20 06:15:28;;;;;;;16.73;12.50;;;19.80;1.00;;;;;;5053735;28;20455;-55
2022/08/20 06:17:53;;;;;;;17.17;12.93;;;19.80;1.00;;;;;;5046391;28;20452;-55
2022/08/20 06:20:19;;;;;;;19.10;12.30;;;19.80;1.00;;;;;;5041080;28;20432;-54
2022/08/20 06:22:44;;;;;;;24.17;12.77;;;19.90;1.00;;;;;;5053220;28;20237;-55
2022/08/20 06:25:10;;;;;;;14.10;11.70;;;20.00;1.00;;;;;;5044949;28;20211;-55
2022/08/20 06:27:41;;;;;;;17.40;14.07;;;20.10;99.90;;;;;;5048608;28;20190;-55
2022/08/20 06:30:10;;;;;;;19.37;13.80;;;20.30;99.90;;;;;;5052222;28;20222;-55
2022/08/20 06:32:35;;;;;;;22.90;14.30;;;20.30;99.90;;;;;;5034269;28;20409;-55
2022/08/20 06:35:04;;;;;;;19.53;14.80;;;20.30;99.90;;;;;;5037218;28;20444;-55
2022/08/20 06:37:31;;;;;;;23.60;14.70;;;20.40;99.90;;;;;;5054268;28;20189;-55
2022/08/20 06:40:01;;;;;;;16.47;11.93;;;20.70;99.90;;;;;;5053010;28;20447;-55
2022/08/20 06:42:27;;;;;;;16.73;13.13;;;21.00;99.90;;;;;;5053076;28;20460;-54
2022/08/20 06:44:52;;;;;;;18.37;13.53;;;21.30;4.80;;;;;;5051045;28;20526;-54
2022/08/20 06:47:20;;;;;;;14.60;11.47;;;21.50;1.00;;;;;;5034525;28;20884;-55
2022/08/20 06:49:47;;;;;;;16.83;12.97;;;21.60;1.00;;;;;;5052772;28;20186;-54
2022/08/20 06:52:15;;;;;;;15.90;11.87;;;21.70;1.00;;;;;;5052752;28;20440;-54
2022/08/20 06:54:42;;;;;;;16.83;11.67;;;21.90;1.00;;;;;;5041550;28;20449;-54
2022/08/20 06:57:07;;;;;;;16.03;11.90;;;22.00;1.00;;;;;;5038202;28;20492;-54
2022/08/20 06:59:33;;;;;;;16.43;11.57;;;22.00;1.00;;;;;;5050588;28;21057;-54
2022/08/20 07:01:59;;;;;;;15.50;11.70;;;22.00;1.00;;;;;;5052407;28;20201;-54
2022/08/20 07:04:26;;;;;;;14.10;11.07;;;21.90;1.00;;;;;;5047524;28;20472;-54
2022/08/20 07:06:52;;;;;;;14.10;9.87;;;22.00;1.00;;;;;;5033857;28;20679;-54
2022/08/20 07:09:22;;;;;;;11.80;8.30;;;22.00;1.00;;;;;;5041097;28;20808;-54
2022/08/20 07:11:48;;;;;;;12.50;8.77;;;22.00;1.00;;;;;;5038561;28;20474;-53
2022/08/20 07:14:14;;;;;;;10.97;9.70;;;21.90;1.00;;;;;;5040895;28;20522;-54
2022/08/20 07:16:40;;;;;;;14.97;9.30;;;21.80;1.00;;;;;;5037209;28;20536;-54
2022/08/20 07:19:07;;;;;;;13.80;8.30;;;21.80;1.00;;;;;;5036344;28;20524;-54
2022/08/20 07:21:33;;;;;;;12.40;7.53;;;21.70;1.00;;;;;;5035865;28;20187;-54
2022/08/20 07:23:58;;;;;;;8.70;7.47;;;21.80;1.00;;;;;;5037329;28;20942;-54
2022/08/20 07:26:24;;;;;;;10.00;7.50;;;21.80;1.00;;;;;;5043312;28;20444;-54
2022/08/20 07:28:50;;;;;;;7.97;6.13;;;21.90;1.00;;;;;;5052229;28;20193;-54
2022/08/20 07:34:01;;;;;;;6.17;5.67;;;22.20;1.00;;;;;;5033441;28;20237;-54
2022/08/20 07:36:27;;;;;;;9.90;5.90;;;22.50;1.00;;;;;;5035290;28;20473;-54
2022/08/20 07:38:53;;;;;;;9.40;5.90;;;22.50;1.00;;;;;;5044779;28;20484;-55
2022/08/20 07:41:19;;;;;;;6.97;6.27;;;22.60;1.00;;;;;;5051433;28;20440;-54
2022/08/20 07:43:45;;;;;;;8.20;6.20;;;22.40;1.00;;;;;;5051434;28;20526;-54
2022/08/20 07:46:13;;;;;;;7.70;6.50;;;22.40;1.00;;;;;;5051720;28;20444;-54
2022/08/20 07:48:45;;;;;;;8.23;7.30;;;22.30;1.00;;;;;;5048757;28;20525;-53
2022/08/20 07:51:11;;;;;;;9.87;7.20;;;22.30;1.00;;;;;;5051289;28;20440;-54
2022/08/20 07:53:39;;;;;;;8.90;6.27;;;22.30;1.00;;;;;;5051409;28;20440;-54
2022/08/20 07:56:10;;;;;;;10.00;7.60;;;22.40;1.00;;;;;;5049876;28;20502;-55
2022/08/20 07:58:40;;;;;;;7.93;6.57;;;22.40;1.00;;;;;;5033050;28;20472;-54
2022/08/20 08:01:06;;;;;;;10.50;7.17;;;22.30;1.00;;;;;;5047192;28;20848;-54
2022/08/20 08:03:32;;;;;;;7.30;6.17;;;22.20;1.00;;;;;;5045097;28;20447;-54
2022/08/20 08:05:59;;;;;;;10.83;5.07;;;22.30;1.00;;;;;;5039962;28;20476;-55
2022/08/20 08:08:27;;;;;;;11.43;5.47;;;22.60;1.00;;;;;;5048504;28;20436;-54
2022/08/20 08:10:58;;;;;;;6.90;4.13;;;22.90;99.90;;;;;;5035482;28;20511;-54
2022/08/20 08:13:26;;;;;;;6.67;4.00;;;23.80;99.90;;;;;;5042706;28;20487;-53
2022/08/20 08:15:58;;;;;;;6.87;3.90;;;24.70;99.90;;;;;;5031764;28;20536;-53
2022/08/20 08:18:27;;;;;;;7.00;3.63;;;25.50;99.90;;;;;;5042194;28;20441;-53
2022/08/20 08:20:53;;;;;;;5.23;4.20;;;25.90;99.90;;;;;;5036711;28;20873;-53
2022/08/20 08:23:22;;;;;;;11.33;4.00;;;26.00;99.90;;;;;;5039344;28;20492;-53
2022/08/20 08:25:50;;;;;;;5.60;3.80;;;25.80;99.90;;;;;;5050867;28;21013;-53
2022/08/20 08:28:16;;;;;;;6.80;3.30;;;25.60;99.90;;;;;;5045565;28;20938;-53
2022/08/20 08:30:43;;;;;;;4.57;2.80;;;25.40;99.90;;;;;;5050149;28;20443;-53
2022/08/20 08:33:27;;;;;;;7.10;2.87;;;24.90;99.90;;;;;;5050095;28;20182;-53
2022/08/20 08:35:54;;;;;;;3.43;2.80;;;24.40;99.90;;;;;;5048919;28;20970;-53
2022/08/20 08:38:24;;;;;;;2.93;2.37;;;24.70;99.90;;;;;;5031236;28;20887;-53
2022/08/20 08:40:52;;;;;;;3.70;2.80;;;25.20;99.90;;;;;;5035387;28;20495;-53
2022/08/20 08:43:20;;;;;;;2.73;2.53;;;25.80;99.90;;;;;;5041843;28;20448;-53
2022/08/20 08:46:00;;;;;;;5.87;3.20;;;26.20;99.90;;;;;;5050108;28;20479;-53
2022/08/20 08:48:41;;;;;;;9.10;3.03;;;26.70;99.90;;;;;;5032120;28;20442;-54
2022/08/20 08:51:11;;;;;;;5.93;3.20;;;26.90;99.90;;;;;;5040363;28;20493;-54
2022/08/20 08:53:41;;;;;;;4.03;2.43;;;27.10;99.90;;;;;;5050641;28;20568;-52
2022/08/20 08:56:07;;;;;;;9.97;3.33;;;27.40;99.90;;;;;;5045119;28;20453;-53
2022/08/20 08:58:34;;;;;;;7.17;3.00;;;27.80;99.90;;;;;;5035249;28;20494;-53
2022/08/20 09:01:19;;;;;;;8.70;3.60;;;28.00;99.90;;;;;;5046236;28;20449;-54
2022/08/20 09:03:49;;;;;;;7.03;3.00;;;27.40;99.90;;;;;;5037960;28;20481;-53
2022/08/20 09:06:23;;;;;;;4.80;3.27;;;26.90;99.90;;;;;;5049417;28;20886;-53
2022/08/20 09:08:56;;;;;;;5.80;3.33;;;26.40;99.90;;;;;;5044218;28;20448;-54
2022/08/20 09:11:23;;;;;;;8.70;3.30;;;25.80;99.90;;;;;;5032069;28;20441;-54
2022/08/20 09:13:50;;;;;;;5.67;2.70;;;25.50;99.90;;;;;;5043776;28;20428;-54
2022/08/20 09:16:16;;;;;;;6.47;3.83;;;25.20;99.90;;;;;;5041048;28;20514;-53
2022/08/20 09:18:42;;;;;;;6.10;3.30;;;24.90;99.90;;;;;;5049424;28;20444;-53
2022/08/20 09:21:08;;;;;;;7.33;3.20;;;24.60;99.90;;;;;;5049840;28;20273;-54
2022/08/20 09:23:34;;;;;;;6.90;2.83;;;24.40;99.90;;;;;;5040062;28;20226;-53
2022/08/20 09:26:00;;;;;;;10.00;3.63;;;24.80;99.90;;;;;;5036292;28;20480;-54
2022/08/20 09:28:25;;;;;;;10.07;3.20;;;25.20;99.90;;;;;;5049427;28;20515;-54
2022/08/20 09:30:51;;;;;;;7.80;3.03;;;25.50;99.90;;;;;;5049729;28;20256;-54
2022/08/20 09:33:17;;;;;;;5.03;2.93;;;25.60;99.90;;;;;;5035379;28;20653;-53
2022/08/20 09:35:45;;;;;;;7.80;3.10;;;25.80;99.90;;;;;;5046750;28;20235;-53
2022/08/20 09:38:11;;;;;;;5.43;2.60;;;26.10;99.90;;;;;;5049324;28;20194;-53
2022/08/20 09:40:37;;;;;;;8.37;2.80;;;26.60;99.90;;;;;;5049943;28;20495;-56
2022/08/20 09:43:07;;;;;;;5.77;2.60;;;26.90;99.90;;;;;;5049751;28;20870;-53
2022/08/20 09:45:33;;;;;;;8.40;2.40;;;27.00;99.90;;;;;;5049892;28;20475;-54
2022/08/20 09:47:59;;;;;;;7.57;3.17;;;26.90;99.90;;;;;;5049705;28;20449;-54
2022/08/20 09:50:27;;;;;;;11.77;2.73;;;26.80;99.90;;;;;;5050082;28;20436;-53
2022/08/20 09:52:56;;;;;;;9.30;3.10;;;26.50;99.90;;;;;;5048389;28;20178;-54
2022/08/20 09:55:50;;;;;;;6.97;3.00;;;26.60;99.90;;;;;;5048558;28;20440;-53
2022/08/20 09:58:33;;;;;;;6.00;2.50;;;26.50;99.90;;;;;;5047713;28;20459;-53
2022/08/20 10:01:05;;;;;;;6.90;3.10;;;26.50;99.90;;;;;;5049485;28;20448;-53
2022/08/20 10:03:31;;;;;;;10.23;3.43;;;26.30;99.90;;;;;;5049587;28;20475;-54
2022/08/20 10:05:58;;;;;;;8.87;3.13;;;26.30;99.90;;;;;;5034035;28;20485;-54
2022/08/20 10:08:24;;;;;;;8.40;2.87;;;26.30;99.90;;;;;;5049870;28;20213;-54
2022/08/20 10:10:50;;;;;;;5.87;3.00;;;26.20;99.90;;;;;;5041621;28;20473;-54
2022/08/20 10:13:15;;;;;;;10.43;3.40;;;26.30;99.90;;;;;;5034218;28;20596;-54
2022/08/20 10:15:41;;;;;;;7.10;2.90;;;26.50;99.90;;;;;;5050456;28;20274;-55
2022/08/20 10:18:06;;;;;;;5.33;3.00;;;26.90;99.90;;;;;;5047460;28;20206;-54
2022/08/20 10:20:34;;;;;;;7.90;3.03;;;27.30;99.90;;;;;;5049594;28;20186;-53
2022/08/20 10:23:00;;;;;;;7.70;2.77;;;27.80;99.90;;;;;;5046694;28;20725;-54
2022/08/20 10:25:27;;;;;;;5.93;2.93;;;28.00;99.90;;;;;;5041632;28;20472;-54
2022/08/20 10:27:53;;;;;;;8.77;3.00;;;28.10;99.90;;;;;;5040905;28;20179;-52
2022/08/20 10:30:19;;;;;;;6.77;2.63;;;28.00;99.90;;;;;;5048860;28;20443;-55
2022/08/20 10:32:45;;;;;;;5.50;2.53;;;27.80;99.90;;;;;;5037536;28;20801;-57
2022/08/20 10:35:10;;;;;;;8.43;2.70;;;28.10;99.90;;;;;;5040987;28;20252;-52
2022/08/20 10:37:36;;;;;;;10.43;2.80;;;28.30;99.90;;;;;;5049728;28;20476;-51
2022/08/20 10:40:03;;;;;;;7.10;2.80;;;28.00;99.90;;;;;;5052111;28;20191;-52
2022/08/20 10:42:29;;;;;;;8.47;3.10;;;27.80;99.90;;;;;;5054051;28;20213;-52
2022/08/20 10:44:55;;;;;;;6.90;2.70;;;27.90;99.90;;;;;;5053830;28;20452;-53
2022/08/20 10:47:27;;;;;;;7.20;2.70;;;27.90;99.90;;;;;;5042710;28;20178;-55
2022/08/20 10:49:54;;;;;;;5.20;3.27;;;27.70;99.90;;;;;;5050259;28;20603;-52
2022/08/20 10:52:20;;;;;;;4.20;2.43;;;27.20;99.90;;;;;;5040455;28;20524;-52
2022/08/20 10:54:46;;;;;;;4.60;2.40;;;26.70;99.90;;;;;;5050023;28;20483;-53
2022/08/20 10:57:19;;;;;;;19.20;3.53;;;26.40;99.90;;;;;;5049549;28;20460;-52
2022/08/20 10:59:47;;;;;;;7.93;3.43;;;26.10;99.90;;;;;;5042015;28;20273;-53
2022/08/20 11:02:13;;;;;;;6.60;2.57;;;25.80;99.90;;;;;;5051340;28;20432;-51
2022/08/20 11:04:42;;;;;;;9.20;3.30;;;25.60;99.90;;;;;;5044698;28;20481;-55
2022/08/20 11:07:11;;;;;;;7.27;3.20;;;25.50;99.90;;;;;;5044412;28;20937;-54
2022/08/20 11:09:37;;;;;;;6.33;2.80;;;25.40;99.90;;;;;;5041154;28;20457;-55
2022/08/20 11:12:03;;;;;;;6.40;3.20;;;25.40;99.90;;;;;;5042056;28;20523;-54
2022/08/20 11:14:28;;;;;;;8.93;2.60;;;25.60;99.90;;;;;;5044704;28;20197;-55
2022/08/20 11:16:54;;;;;;;6.50;2.77;;;25.80;99.90;;;;;;5049283;28;20183;-55
2022/08/20 11:19:20;;;;;;;10.77;4.80;;;25.80;99.90;;;;;;5042793;28;20273;-54
2022/08/20 11:21:46;;;;;;;5.87;2.87;;;25.90;99.90;;;;;;5033969;28;20230;-54
2022/08/20 11:24:11;;;;;;;8.40;2.93;;;25.90;99.90;;;;;;5038165;28;20472;-54
2022/08/20 11:26:37;;;;;;;7.60;2.60;;;25.90;99.90;;;;;;5050936;28;20187;-56
2022/08/20 11:29:02;;;;;;;7.07;2.80;;;26.20;99.90;;;;;;5052946;28;20178;-55
2022/08/20 11:31:28;;;;;;;8.23;2.40;;;26.80;99.90;;;;;;5051844;28;20181;-55
2022/08/20 11:33:54;;;;;;;10.13;2.50;;;27.50;99.90;;;;;;5047886;28;20709;-55
2022/08/20 11:36:25;;;;;;;5.27;2.07;;;28.10;99.90;;;;;;5033487;28;20187;-53
2022/08/20 11:38:51;;;;;;;5.07;2.30;;;28.00;99.90;;;;;;5033106;28;20585;-52
2022/08/20 11:41:17;;;;;;;11.20;2.80;;;27.80;99.90;;;;;;5047408;28;20527;-52
2022/08/20 11:43:43;;;;;;;5.90;1.87;;;28.00;99.90;;;;;;5052576;28;20417;-54
2022/08/20 11:46:08;;;;;;;7.60;2.27;;;28.00;99.90;;;;;;5050455;28;20664;-53
2022/08/20 11:48:34;;;;;;;5.83;2.20;;;28.00;99.90;;;;;;5051794;28;20248;-53
2022/08/20 11:50:59;;;;;;;8.63;2.50;;;28.10;99.90;;;;;;5052362;28;20234;-52
2022/08/20 11:53:25;;;;;;;4.90;2.20;;;28.10;99.90;;;;;;5051720;28;20180;-54
2022/08/20 11:55:51;;;;;;;5.53;2.10;;;28.20;99.90;;;;;;5052594;28;20236;-52
2022/08/20 11:58:17;;;;;;;7.67;2.30;;;28.00;99.90;;;;;;5051493;28;20236;-52
2022/08/20 12:00:43;;;;;;;7.67;2.33;;;28.30;99.90;;;;;;5052312;28;20174;-52
2022/08/20 12:03:09;;;;;;;7.47;2.27;;;28.10;99.90;;;;;;5046483;28;20794;-52
2022/08/20 12:05:35;;;;;;;9.97;2.00;;;28.20;99.90;;;;;;5044774;28;20191;-52
2022/08/20 12:08:01;;;;;;;3.40;1.80;;;28.40;99.90;;;;;;5042084;28;20214;-52
2022/08/20 12:10:27;;;;;;;16.80;1.90;;;28.60;99.90;;;;;;5032422;28;20445;-54
2022/08/20 12:12:53;;;;;;;7.60;2.10;;;28.70;99.90;;;;;;5039586;28;20189;-50
2022/08/20 12:15:19;;;;;;;6.33;1.77;;;29.10;99.90;;;;;;5052091;28;20859;-50
2022/08/20 12:17:45;;;;;;;6.77;1.57;;;29.10;99.90;;;;;;5051228;28;20448;-51
2022/08/20 12:20:13;;;;;;;6.97;1.87;;;29.20;99.90;;;;;;5050337;28;20643;-50
2022/08/20 12:22:40;;;;;;;4.90;1.83;;;29.50;99.90;;;;;;5050817;28;20222;-53
2022/08/20 12:25:07;;;;;;;4.90;1.80;;;29.60;99.90;;;;;;5051734;28;20456;-50
2022/08/20 12:27:33;;;;;;;5.17;1.73;;;29.60;99.90;;;;;;5050935;28;20448;-51
2022/08/20 12:30:03;;;;;;;4.40;1.90;;;29.70;99.90;;;;;;5051772;28;20906;-50
2022/08/20 12:32:30;;;;;;;3.40;1.30;;;29.80;99.90;;;;;;5050768;28;20409;-50
2022/08/20 12:34:57;;;;;;;4.50;1.70;;;29.70;99.90;;;;;;5051878;28;20421;-50
2022/08/20 12:37:25;;;;;;;4.53;1.60;;;29.40;99.90;;;;;;5044580;28;20529;-50
2022/08/20 12:39:54;;;;;;;6.93;2.03;;;29.10;99.90;;;;;;5043261;28;20922;-50
2022/08/20 12:42:20;;;;;;;19.33;12.60;;;28.80;99.90;;;;;;5040487;28;20434;-50
2022/08/20 12:44:46;;;;;;;4.27;2.00;;;28.80;99.90;;;;;;5031466;28;20950;-53
2022/08/20 12:47:13;;;;;;;3.27;1.77;;;28.90;99.90;;;;;;5038247;28;20516;-53
2022/08/20 12:49:41;;;;;;;5.80;2.13;;;29.30;99.90;;;;;;5045852;28;20239;-53
2022/08/20 12:52:07;;;;;;;7.47;1.80;;;29.70;99.90;;;;;;5051026;28;20413;-50